Time;durP1;ratioP1;P1;durP2;ratioP2;P2;SDS_P1;SDS_P2;PMS_P1;PMS_P2;Temp;Humidity;BMP_temperature;BMP_pressure;BME280_temperature;BME280_humidity;BME280_pressure;Samples;Min_cycle;Max_cycle;Signal;HPM_P1;HPM_P2
2022/05/29 00:01:20;;;;;;;11.15;3.30;;;8.80;99.90;;;;;;4295770;28;10000373;-74
2022/05/29 00:03:46;;;;;;;10.20;2.88;;;8.80;99.90;;;;;;4992391;28;20391;-74
2022/05/29 00:06:13;;;;;;;10.27;3.90;;;8.70;99.90;;;;;;4992096;28;20487;-74
2022/05/29 00:08:42;;;;;;;7.50;2.88;;;8.70;99.90;;;;;;5000534;28;20042;-74
2022/05/29 00:11:10;;;;;;;7.82;3.20;;;8.70;99.90;;;;;;4991531;28;20058;-74
2022/05/29 00:13:36;;;;;;;8.20;3.22;;;8.70;99.90;;;;;;4994074;28;20029;-74
2022/05/29 00:16:02;;;;;;;8.40;3.22;;;8.70;99.90;;;;;;4999996;28;20061;-73
2022/05/29 00:18:28;;;;;;;6.80;2.80;;;8.70;99.90;;;;;;5001050;28;20268;-74
2022/05/29 00:20:57;;;;;;;7.43;3.00;;;8.60;99.90;;;;;;4994614;28;20390;-74
2022/05/29 00:23:23;;;;;;;8.95;3.25;;;8.50;99.90;;;;;;5001069;28;20045;-74
2022/05/29 00:25:52;;;;;;;12.43;3.10;;;8.50;99.90;;;;;;4991029;28;20435;-74
2022/05/29 00:28:18;;;;;;;6.50;3.15;;;8.40;99.90;;;;;;4995851;28;20092;-74
2022/05/29 00:30:45;;;;;;;5.47;2.67;;;8.40;99.90;;;;;;4989444;28;20065;-74
2022/05/29 00:33:11;;;;;;;8.85;2.83;;;8.30;99.90;;;;;;4999971;28;20047;-73
2022/05/29 00:35:39;;;;;;;7.22;2.92;;;8.30;99.90;;;;;;4997136;28;20627;-74
2022/05/29 00:38:05;;;;;;;10.05;2.65;;;8.30;99.90;;;;;;5000877;28;20161;-74
2022/05/29 00:40:57;;;;;;;8.43;2.63;;;8.30;99.90;;;;;;4991601;28;20030;-74
2022/05/29 00:43:23;;;;;;;10.73;2.80;;;8.30;99.90;;;;;;4990183;28;20029;-74
2022/05/29 00:46:00;;;;;;;12.82;2.78;;;8.40;99.90;;;;;;4992426;28;20041;-74
2022/05/29 00:48:27;;;;;;;11.13;2.40;;;8.50;99.90;;;;;;4998488;28;20178;-74
2022/05/29 00:50:56;;;;;;;7.63;2.35;;;8.50;99.90;;;;;;5006081;28;20228;-74
2022/05/29 00:53:23;;;;;;;7.13;2.47;;;8.50;99.90;;;;;;5007760;28;20026;-74
2022/05/29 00:55:55;;;;;;;5.07;1.75;;;8.50;99.90;;;;;;4995166;28;20035;-74
2022/05/29 00:58:22;;;;;;;5.30;2.15;;;8.40;99.90;;;;;;4987696;28;20018;-74
2022/05/29 01:00:49;;;;;;;8.60;2.10;;;8.40;99.90;;;;;;4992985;28;20031;-75
2022/05/29 01:03:15;;;;;;;7.72;2.08;;;8.50;99.90;;;;;;5003338;28;20045;-74
2022/05/29 01:05:41;;;;;;;3.88;1.58;;;8.40;99.90;;;;;;5002399;28;20034;-74
2022/05/29 01:08:19;;;;;;;6.97;1.80;;;8.40;99.90;;;;;;5003535;28;20065;-73
2022/05/29 01:11:13;;;;;;;5.53;1.90;;;8.40;99.90;;;;;;5000185;28;20482;-73
2022/05/29 01:13:45;;;;;;;6.05;1.67;;;8.30;99.90;;;;;;5004717;28;20037;-73
2022/05/29 01:16:20;;;;;;;5.18;2.00;;;8.30;99.90;;;;;;5002423;28;20800;-73
2022/05/29 01:19:16;;;;;;;7.50;2.35;;;8.20;99.90;;;;;;4999611;28;20611;-73
2022/05/29 01:22:20;;;;;;;4.97;1.67;;;8.10;99.90;;;;;;5003174;28;20397;-72
2022/05/29 01:25:03;;;;;;;5.28;1.98;;;8.00;99.90;;;;;;4994184;28;20434;-73
2022/05/29 01:27:52;;;;;;;8.60;2.63;;;7.90;99.90;;;;;;4996903;28;20097;-73
2022/05/29 01:30:21;;;;;;;7.07;2.47;;;8.00;99.90;;;;;;5000238;28;20100;-74
2022/05/29 01:33:20;;;;;;;7.63;2.38;;;7.90;99.90;;;;;;5000786;28;20439;-74
2022/05/29 01:35:53;;;;;;;6.28;2.20;;;7.90;99.90;;;;;;5001036;28;20474;-74
2022/05/29 01:38:39;;;;;;;10.45;2.63;;;7.90;99.90;;;;;;5000110;28;20030;-73
2022/05/29 01:41:12;;;;;;;11.88;2.85;;;7.90;99.90;;;;;;4997918;28;20038;-73
2022/05/29 01:43:46;;;;;;;9.15;2.13;;;7.80;99.90;;;;;;5001716;28;20880;-73
2022/05/29 01:46:19;;;;;;;7.32;2.38;;;7.70;99.90;;;;;;4994914;28;20096;-73
2022/05/29 01:48:48;;;;;;;;;;;7.60;99.90;;;;;;5003434;28;20065;-72
2022/05/29 01:51:18;;;;;;;5.40;1.98;;;7.50;99.90;;;;;;5006404;28;19916;-74
2022/05/29 01:53:56;;;;;;;7.10;2.15;;;7.50;99.90;;;;;;4996743;28;20048;-74
2022/05/29 01:56:35;;;;;;;7.20;2.33;;;7.50;99.90;;;;;;4993264;28;20073;-74
2022/05/29 01:59:10;;;;;;;4.53;2.20;;;7.40;99.90;;;;;;5003135;28;20121;-73
2022/05/29 02:01:42;;;;;;;9.48;2.78;;;7.40;99.90;;;;;;5004337;28;20084;-73
2022/05/29 02:04:15;;;;;;;8.70;2.83;;;7.40;99.90;;;;;;5004006;28;20108;-73
2022/05/29 02:09:35;;;;;;;5.10;2.00;;;7.40;99.90;;;;;;4996594;28;20702;-74
2022/05/29 02:12:04;;;;;;;8.80;1.98;;;7.40;99.90;;;;;;4996755;28;20042;-74
2022/05/29 02:14:34;;;;;;;10.02;2.67;;;7.50;99.90;;;;;;5006886;28;20026;-73
2022/05/29 02:17:07;;;;;;;5.85;2.10;;;7.60;99.90;;;;;;5006641;28;20105;-73
2022/05/29 02:19:51;;;;;;;7.28;2.72;;;7.80;99.90;;;;;;5000507;28;20034;-74
2022/05/29 02:22:29;;;;;;;11.65;2.38;;;7.80;99.90;;;;;;4996264;28;20387;-73
2022/05/29 02:25:22;;;;;;;5.57;1.98;;;7.70;99.90;;;;;;5002412;28;20037;-73
2022/05/29 02:28:00;;;;;;;6.60;2.33;;;7.70;99.90;;;;;;4999094;28;20069;-73
2022/05/29 02:30:35;;;;;;;5.45;2.45;;;7.70;99.90;;;;;;4996203;28;20064;-73
2022/05/29 02:33:10;;;;;;;7.85;2.28;;;7.70;99.90;;;;;;4997379;28;20050;-73
2022/05/29 02:35:39;;;;;;;8.30;2.08;;;7.70;99.90;;;;;;5003020;28;20165;-73
2022/05/29 02:38:31;;;;;;;5.82;2.30;;;7.80;99.90;;;;;;5006104;28;20022;-73
2022/05/29 02:41:12;;;;;;;10.05;2.08;;;7.80;99.90;;;;;;5003176;28;20146;-73
2022/05/29 02:43:40;;;;;;;6.40;2.20;;;7.60;99.90;;;;;;5004761;28;20036;-73
2022/05/29 02:46:31;;;;;;;7.32;2.20;;;7.60;99.90;;;;;;5002628;28;20037;-73
2022/05/29 02:49:04;;;;;;;3.45;1.52;;;7.60;99.90;;;;;;4995434;28;20026;-73
2022/05/29 02:51:45;;;;;;;;;;;7.50;99.90;;;;;;4997337;28;20065;-73
2022/05/29 02:54:12;;;;;;;7.07;2.13;;;7.50;99.90;;;;;;4990609;28;19994;-73
2022/05/29 02:56:38;;;;;;;9.57;2.72;;;7.50;99.90;;;;;;5001752;28;20501;-73
2022/05/29 02:59:03;;;;;;;7.70;2.65;;;7.40;99.90;;;;;;5004115;28;20025;-73
2022/05/29 03:01:47;;;;;;;7.18;2.28;;;7.40;99.90;;;;;;4995440;28;20029;-73
2022/05/29 03:04:18;;;;;;;5.05;2.33;;;7.40;99.90;;;;;;5000703;28;20110;-73
2022/05/29 03:06:51;;;;;;;10.07;2.63;;;7.50;99.90;;;;;;5001065;28;20037;-73
2022/05/29 03:09:49;;;;;;;5.47;2.33;;;7.40;99.90;;;;;;4995999;28;20030;-73
2022/05/29 03:12:43;;;;;;;7.55;2.45;;;7.40;99.90;;;;;;4995572;28;20030;-73
2022/05/29 03:15:18;;;;;;;6.78;2.60;;;7.30;99.90;;;;;;5000169;28;20536;-73
2022/05/29 03:18:08;;;;;;;7.72;2.45;;;7.30;99.90;;;;;;5000950;28;20032;-73
2022/05/29 03:20:48;;;;;;;7.03;2.63;;;7.30;99.90;;;;;;4996455;28;20026;-73
2022/05/29 03:23:19;;;;;;;10.40;3.05;;;7.30;99.90;;;;;;5001289;28;20084;-73
2022/05/29 03:25:54;;;;;;;5.78;2.45;;;7.30;99.90;;;;;;4989739;28;20064;-73
2022/05/29 03:28:41;;;;;;;7.97;2.72;;;7.30;99.90;;;;;;5001309;28;20033;-72
2022/05/29 03:31:14;;;;;;;8.13;2.65;;;7.30;99.90;;;;;;4999548;28;20026;-73
2022/05/29 03:33:40;;;;;;;5.32;2.83;;;7.20;99.90;;;;;;5004922;28;20080;-73
2022/05/29 03:36:11;;;;;;;7.10;2.67;;;7.30;99.90;;;;;;4992775;28;20038;-72
2022/05/29 03:38:37;;;;;;;7.40;2.67;;;7.30;99.90;;;;;;5003010;28;20026;-72
2022/05/29 03:41:12;;;;;;;8.02;2.70;;;7.30;99.90;;;;;;4997640;28;20052;-72
2022/05/29 03:43:40;;;;;;;7.72;2.30;;;7.40;99.90;;;;;;5000327;28;20037;-72
2022/05/29 03:46:06;;;;;;;8.45;2.75;;;7.50;99.90;;;;;;5000949;28;20092;-72
2022/05/29 03:48:32;;;;;;;7.75;2.88;;;7.50;99.90;;;;;;5001490;28;20088;-72
2022/05/29 03:51:06;;;;;;;7.38;2.47;;;7.60;99.90;;;;;;4991884;28;20056;-72
2022/05/29 03:53:32;;;;;;;8.63;3.00;;;7.60;99.90;;;;;;4995687;28;20220;-72
2022/05/29 03:55:58;;;;;;;6.28;2.60;;;7.60;99.90;;;;;;5002684;28;20076;-72
2022/05/29 03:58:24;;;;;;;7.55;2.70;;;7.60;99.90;;;;;;5001823;28;20029;-72
2022/05/29 04:00:50;;;;;;;7.03;2.92;;;7.70;99.90;;;;;;4988480;28;20025;-72
2022/05/29 04:03:16;;;;;;;9.70;2.92;;;7.70;99.90;;;;;;5000668;28;20402;-72
2022/05/29 04:05:41;;;;;;;6.28;2.80;;;7.70;99.90;;;;;;4998262;28;20022;-73
2022/05/29 04:13:44;;;;;;;12.43;3.03;;;7.80;99.90;;;;;;5000203;28;20456;-73
2022/05/29 04:16:11;;;;;;;6.97;2.90;;;7.80;99.90;;;;;;4992548;28;20124;-72
2022/05/29 04:18:37;;;;;;;7.15;2.80;;;7.90;99.90;;;;;;4993719;28;20083;-73
2022/05/29 04:21:03;;;;;;;8.55;3.28;;;7.90;99.90;;;;;;5008270;28;20034;-73
2022/05/29 04:23:29;;;;;;;8.43;2.92;;;8.00;99.90;;;;;;5009569;28;20030;-73
2022/05/29 04:25:54;;;;;;;8.20;2.92;;;8.00;99.90;;;;;;5003499;28;20076;-73
2022/05/29 04:28:21;;;;;;;10.27;3.20;;;8.00;99.90;;;;;;5001458;28;20393;-73
2022/05/29 04:30:47;;;;;;;8.48;2.97;;;8.00;99.90;;;;;;4990414;28;20026;-73
2022/05/29 04:33:13;;;;;;;6.63;2.65;;;8.00;99.90;;;;;;4994659;28;20073;-73
2022/05/29 04:35:47;;;;;;;9.93;2.88;;;8.10;99.90;;;;;;4992988;28;20307;-73
2022/05/29 04:38:14;;;;;;;9.25;2.90;;;8.10;99.90;;;;;;4992285;28;20387;-73
2022/05/29 04:40:41;;;;;;;9.95;2.90;;;8.20;99.90;;;;;;4989787;28;20475;-73
2022/05/29 04:43:07;;;;;;;13.48;3.53;;;8.20;99.90;;;;;;4997006;28;20092;-72
2022/05/29 04:45:33;;;;;;;9.90;3.35;;;8.30;99.90;;;;;;5003881;28;20596;-73
2022/05/29 04:47:59;;;;;;;7.20;2.90;;;8.30;99.90;;;;;;5004906;28;20046;-73
2022/05/29 04:50:25;;;;;;;9.13;3.17;;;8.40;99.90;;;;;;5000584;28;20026;-72
2022/05/29 04:52:50;;;;;;;8.88;3.45;;;8.50;99.90;;;;;;5004902;28;20532;-72
2022/05/29 04:55:17;;;;;;;7.72;2.78;;;8.50;99.90;;;;;;4998068;28;20030;-72
2022/05/29 04:57:43;;;;;;;7.47;2.83;;;8.60;99.90;;;;;;5008481;28;20049;-72
2022/05/29 05:00:09;;;;;;;7.60;2.90;;;8.70;99.90;;;;;;5004830;28;20026;-73
2022/05/29 05:02:35;;;;;;;5.45;2.40;;;8.80;99.90;;;;;;5000196;28;20556;-73
2022/05/29 05:05:01;;;;;;;8.20;2.70;;;8.90;99.90;;;;;;5003925;28;20108;-73
2022/05/29 05:07:26;;;;;;;7.13;2.67;;;8.90;99.90;;;;;;5005873;28;20505;-73
2022/05/29 05:09:52;;;;;;;9.70;3.00;;;9.00;99.90;;;;;;4995058;28;20038;-73
2022/05/29 05:12:18;;;;;;;7.45;2.60;;;9.10;99.90;;;;;;5008166;28;20022;-73
2022/05/29 05:14:43;;;;;;;6.10;2.85;;;9.20;99.90;;;;;;5000804;28;20061;-73
2022/05/29 05:17:09;;;;;;;8.73;2.88;;;9.30;99.90;;;;;;4993042;28;20100;-73
2022/05/29 05:19:35;;;;;;;9.70;3.00;;;9.40;99.90;;;;;;4999742;28;20474;-73
2022/05/29 05:22:03;;;;;;;9.13;2.97;;;9.40;99.90;;;;;;5006802;28;20053;-73
2022/05/29 05:24:29;;;;;;;6.68;2.70;;;9.40;99.90;;;;;;5001994;28;20575;-73
2022/05/29 05:26:58;;;;;;;8.35;2.90;;;9.50;99.90;;;;;;5003050;28;20513;-73
2022/05/29 05:29:24;;;;;;;10.25;3.00;;;9.60;99.90;;;;;;5000501;28;20045;-73
2022/05/29 05:31:50;;;;;;;10.68;2.80;;;9.50;99.90;;;;;;4991264;28;20026;-73
2022/05/29 05:34:16;;;;;;;10.90;4.20;;;9.50;99.90;;;;;;4998653;28;20386;-73
2022/05/29 05:36:41;;;;;;;10.70;3.70;;;9.50;99.90;;;;;;4991135;28;20026;-73
2022/05/29 05:39:07;;;;;;;8.63;3.22;;;9.50;99.90;;;;;;4999443;28;20484;-73
2022/05/29 05:41:33;;;;;;;8.70;3.60;;;9.50;99.90;;;;;;5004942;28;20114;-73
2022/05/29 05:43:59;;;;;;;10.70;3.97;;;9.40;99.90;;;;;;5004713;28;20037;-73
2022/05/29 05:46:24;;;;;;;93.38;53.63;;;9.50;99.90;;;;;;5002903;28;20041;-73
2022/05/29 05:48:50;;;;;;;22.48;12.45;;;9.50;99.90;;;;;;5001688;28;20037;-73
2022/05/29 05:51:16;;;;;;;13.98;5.13;;;9.70;99.90;;;;;;4999875;28;20120;-74
2022/05/29 05:53:42;;;;;;;9.40;4.30;;;9.90;99.90;;;;;;4999350;28;20030;-73
2022/05/29 05:56:10;;;;;;;7.43;3.47;;;10.00;99.90;;;;;;5004904;28;20651;-73
2022/05/29 05:58:37;;;;;;;9.95;3.33;;;10.20;99.90;;;;;;5000467;28;20610;-73
2022/05/29 06:01:12;;;;;;;9.68;3.00;;;10.40;99.90;;;;;;4996828;28;20044;-73
2022/05/29 06:03:38;;;;;;;7.23;2.67;;;10.40;99.90;;;;;;4306991;28;10021686;-73
2022/05/29 06:06:03;;;;;;;8.25;2.88;;;10.50;99.90;;;;;;5025518;28;20174;-73
2022/05/29 06:08:29;;;;;;;6.90;2.67;;;10.40;99.90;;;;;;5026733;28;20025;-72
2022/05/29 06:10:55;;;;;;;7.03;2.60;;;10.30;99.90;;;;;;5029694;28;20043;-74
2022/05/29 06:13:22;;;;;;;7.25;2.85;;;10.40;99.90;;;;;;5035366;28;20061;-74
2022/05/29 06:15:48;;;;;;;7.65;2.90;;;10.40;99.90;;;;;;5032669;28;20622;-74
2022/05/29 06:18:15;;;;;;;8.07;3.30;;;10.40;99.90;;;;;;5022594;28;20057;-74
2022/05/29 06:20:41;;;;;;;10.15;3.25;;;10.20;99.90;;;;;;5030555;28;20033;-73
2022/05/29 06:23:07;;;;;;;6.35;3.00;;;10.20;99.90;;;;;;5029283;28;20029;-73
2022/05/29 06:25:32;;;;;;;5.78;3.10;;;10.20;99.90;;;;;;5027544;28;20040;-74
2022/05/29 06:27:58;;;;;;;8.15;2.90;;;10.30;99.90;;;;;;5026321;28;20037;-76
2022/05/29 06:30:24;;;;;;;10.15;3.15;;;10.30;99.90;;;;;;5022362;28;20037;-77
2022/05/29 06:32:49;;;;;;;7.97;3.10;;;10.40;99.90;;;;;;5035970;28;20064;-75
2022/05/29 06:35:16;;;;;;;8.18;2.85;;;10.40;99.90;;;;;;5033446;28;20029;-73
2022/05/29 06:37:42;;;;;;;8.20;3.38;;;10.50;99.90;;;;;;5002588;28;20049;-76
2022/05/29 06:40:09;;;;;;;8.43;3.67;;;10.70;99.90;;;;;;4994165;28;20041;-76
2022/05/29 06:42:35;;;;;;;8.48;2.80;;;10.80;99.90;;;;;;4997576;28;20525;-74
2022/05/29 06:45:03;;;;;;;6.28;3.20;;;11.00;99.90;;;;;;4996753;28;20033;-73
2022/05/29 06:47:29;;;;;;;4.88;2.53;;;11.10;99.90;;;;;;4998638;28;20537;-76
2022/05/29 06:49:54;;;;;;;9.82;3.15;;;11.30;99.90;;;;;;4993170;28;20037;-75
2022/05/29 06:52:20;;;;;;;7.93;3.30;;;11.30;99.90;;;;;;4996492;28;20029;-76
2022/05/29 06:54:46;;;;;;;8.05;3.00;;;11.30;99.90;;;;;;4995069;28;20120;-75
2022/05/29 06:57:13;;;;;;;6.85;2.85;;;11.40;99.90;;;;;;4998041;28;20113;-74
2022/05/29 07:07:58;;;;;;;8.75;2.38;;;12.00;99.90;;;;;;4990717;28;20053;-74
2022/05/29 07:10:33;;;;;;;8.85;3.10;;;12.00;99.90;;;;;;5000509;28;20034;-74
2022/05/29 07:13:01;;;;;;;4.75;2.40;;;12.00;99.90;;;;;;4993971;28;20034;-76
2022/05/29 07:15:27;;;;;;;6.88;2.40;;;12.00;99.90;;;;;;5000020;28;20061;-75
2022/05/29 07:17:52;;;;;;;7.03;2.35;;;12.10;99.90;;;;;;4995173;28;20395;-76
2022/05/29 07:20:18;;;;;;;5.85;2.42;;;12.20;99.90;;;;;;5007099;28;20060;-76
2022/05/29 07:22:44;;;;;;;7.30;2.67;;;12.10;99.90;;;;;;5000333;28;20576;-76
2022/05/29 07:25:11;;;;;;;9.00;2.42;;;12.20;99.90;;;;;;4997584;28;20108;-76
2022/05/29 07:27:38;;;;;;;6.47;2.22;;;12.20;99.90;;;;;;5001714;28;20044;-76
2022/05/29 07:30:04;;;;;;;5.63;2.35;;;12.30;99.90;;;;;;5000704;28;20041;-76
2022/05/29 07:32:30;;;;;;;7.13;2.20;;;12.40;99.90;;;;;;5002796;28;20539;-75
2022/05/29 07:34:57;;;;;;;6.93;2.00;;;12.40;99.90;;;;;;4995398;28;20034;-76
2022/05/29 07:37:23;;;;;;;7.25;2.15;;;12.60;99.90;;;;;;4994336;28;20096;-75
2022/05/29 07:39:51;;;;;;;7.60;2.17;;;12.70;99.90;;;;;;4998249;28;20445;-74
2022/05/29 07:45:03;;;;;;;8.85;2.03;;;12.90;99.90;;;;;;5003008;28;20100;-82
2022/05/29 07:47:40;;;;;;;7.65;2.40;;;13.10;99.90;;;;;;4992655;28;20490;-82
2022/05/29 07:50:08;;;;;;;7.13;2.30;;;13.30;99.90;;;;;;5000402;28;20045;-82
2022/05/29 07:52:33;;;;;;;4.63;1.98;;;13.40;99.90;;;;;;4989307;28;20285;-82
2022/05/29 07:54:59;;;;;;;4.63;1.70;;;13.60;99.90;;;;;;4986719;28;20022;-82
2022/05/29 07:57:26;;;;;;;7.93;2.20;;;13.60;99.90;;;;;;4986494;28;20115;-83
2022/05/29 07:59:52;;;;;;;4.32;1.98;;;13.60;99.90;;;;;;4992188;28;20038;-83
2022/05/29 08:02:18;;;;;;;5.82;2.00;;;13.60;99.90;;;;;;5009040;28;20022;-83
2022/05/29 08:04:44;;;;;;;6.30;2.00;;;13.50;99.90;;;;;;4994180;28;20042;-83
2022/05/29 08:07:10;;;;;;;3.83;1.63;;;13.30;99.90;;;;;;4996324;28;20030;-83
2022/05/29 08:09:36;;;;;;;6.45;1.55;;;13.20;99.90;;;;;;4989921;28;20033;-83
2022/05/29 08:12:01;;;;;;;6.05;1.77;;;13.20;99.90;;;;;;4989385;28;20030;-83
2022/05/29 08:14:29;;;;;;;4.90;1.77;;;13.30;99.90;;;;;;4988906;28;20062;-83
2022/05/29 08:16:55;;;;;;;5.20;2.05;;;13.40;99.90;;;;;;4989466;28;20026;-83
2022/05/29 08:19:20;;;;;;;6.70;1.55;;;13.40;99.90;;;;;;4987750;28;20408;-82
2022/05/29 08:21:46;;;;;;;3.42;1.40;;;13.60;99.90;;;;;;5005042;28;20676;-82
2022/05/29 08:32:24;;;;;;;3.88;1.50;;;14.70;99.90;;;;;;4993728;28;20121;-83
2022/05/29 08:34:49;;;;;;;5.43;1.40;;;15.30;99.90;;;;;;4989411;28;20082;-84
2022/05/29 08:37:15;;;;;;;6.45;1.42;;;15.50;99.90;;;;;;4988728;28;20030;-83
2022/05/29 08:39:41;;;;;;;5.10;1.55;;;15.50;99.90;;;;;;4990613;28;20049;-83
2022/05/29 08:42:07;;;;;;;3.47;1.38;;;15.40;99.90;;;;;;5001526;28;20034;-83
2022/05/29 08:45:00;;;;;;;3.55;1.27;;;15.30;99.90;;;;;;4988525;28;20521;-83
2022/05/29 08:47:28;;;;;;;4.75;1.58;;;15.10;99.90;;;;;;4988104;28;20054;-83
2022/05/29 08:49:54;;;;;;;4.07;1.25;;;14.80;99.90;;;;;;4993789;28;20030;-83
2022/05/29 08:52:26;;;;;;;4.25;1.23;;;14.60;99.90;;;;;;4997852;28;20038;-83
2022/05/29 08:55:10;;;;;;;5.82;1.25;;;14.30;99.90;;;;;;5001708;28;20079;-83
2022/05/29 08:58:13;;;;;;;2.45;1.00;;;14.10;99.90;;;;;;5004836;28;20094;-83
2022/05/29 09:00:38;;;;;;;3.53;1.00;;;14.10;99.90;;;;;;4989864;28;20054;-83
2022/05/29 09:03:22;;;;;;;3.42;1.05;;;14.20;99.90;;;;;;5007993;28;20509;-83
2022/05/29 09:06:00;;;;;;;4.15;1.23;;;14.30;99.90;;;;;;4989726;28;20027;-83
2022/05/29 09:09:17;;;;;;;2.17;1.08;;;14.40;99.90;;;;;;5000119;28;20244;-83
2022/05/29 09:11:49;;;;;;;2.70;1.27;;;14.50;99.90;;;;;;4987904;28;20032;-83
2022/05/29 09:14:47;;;;;;;4.80;1.40;;;14.70;99.90;;;;;;4988383;28;20113;-83
2022/05/29 09:17:23;;;;;;;4.40;1.30;;;14.80;99.90;;;;;;5002534;28;20544;-83
2022/05/29 09:19:51;;;;;;;3.97;1.50;;;14.90;99.90;;;;;;5005460;28;20060;-83
2022/05/29 09:22:35;;;;;;;2.88;1.15;;;15.00;99.90;;;;;;5004940;28;20022;-83
2022/05/29 09:25:28;;;;;;;4.68;1.25;;;15.10;99.90;;;;;;4993488;28;20030;-82
2022/05/29 09:27:54;;;;;;;2.42;1.10;;;15.20;99.90;;;;;;4987603;28;20524;-82
2022/05/29 09:30:20;;;;;;;4.13;1.00;;;15.10;99.90;;;;;;4985811;28;20118;-82
2022/05/29 09:32:53;;;;;;;4.18;1.25;;;15.10;99.90;;;;;;4996566;28;20049;-82
2022/05/29 09:35:24;;;;;;;4.20;1.30;;;14.90;99.90;;;;;;4988043;28;20030;-82
2022/05/29 09:38:10;;;;;;;4.88;1.05;;;14.80;99.90;;;;;;4994465;28;20036;-82
2022/05/29 09:40:55;;;;;;;3.35;1.10;;;14.50;99.90;;;;;;5003523;28;20040;-82
2022/05/29 09:43:23;;;;;;;4.35;1.40;;;14.20;99.90;;;;;;5004816;28;20095;-82
2022/05/29 09:45:50;;;;;;;2.08;0.90;;;14.20;99.90;;;;;;5007002;28;20025;-82
2022/05/29 09:51:29;;;;;;;3.25;1.20;;;14.40;99.90;;;;;;5001468;28;20044;-82
2022/05/29 09:53:58;;;;;;;3.08;1.20;;;14.50;99.90;;;;;;4987461;28;20033;-82
2022/05/29 09:56:28;;;;;;;5.20;1.33;;;14.60;99.90;;;;;;5000200;28;20022;-83
2022/05/29 09:59:02;;;;;;;1.38;0.82;;;14.80;99.90;;;;;;4988822;28;20174;-82
2022/05/29 10:01:38;;;;;;;3.70;1.10;;;15.00;99.90;;;;;;4987202;28;20049;-82
2022/05/29 10:04:06;;;;;;;1.30;0.77;;;15.20;99.90;;;;;;4987742;28;20033;-82
2022/05/29 10:06:41;;;;;;;2.42;1.00;;;15.30;99.90;;;;;;4994014;28;20045;-82
2022/05/29 10:09:17;;;;;;;1.92;0.77;;;15.50;99.90;;;;;;5004911;28;20314;-82
2022/05/29 10:11:53;;;;;;;1.95;0.73;;;15.70;99.90;;;;;;4987596;28;20057;-82
2022/05/29 10:14:32;;;;;;;5.03;0.90;;;15.70;99.60;;;;;;4986858;28;20670;-82
2022/05/29 10:16:58;;;;;;;2.85;1.08;;;15.80;99.90;;;;;;4987991;28;20037;-82
2022/05/29 10:19:38;;;;;;;3.00;0.90;;;16.00;99.40;;;;;;4985089;28;20034;-82
2022/05/29 10:22:13;;;;;;;2.63;1.00;;;16.00;99.40;;;;;;5000337;28;20029;-84
2022/05/29 10:24:40;;;;;;;3.50;1.15;;;16.20;98.70;;;;;;5000156;28;20034;-82
2022/05/29 10:27:25;;;;;;;1.30;0.70;;;16.20;98.60;;;;;;4998912;28;20053;-80
2022/05/29 10:30:01;;;;;;;2.00;1.02;;;16.20;98.90;;;;;;4991759;28;20494;-85
2022/05/29 10:32:30;;;;;;;3.90;0.90;;;16.10;99.80;;;;;;4996191;28;20500;-81
2022/05/29 10:35:17;;;;;;;2.08;0.80;;;16.00;99.90;;;;;;4998875;28;20034;-82
2022/05/29 10:37:44;;;;;;;1.83;0.77;;;16.00;99.30;;;;;;5000802;28;21053;-82
2022/05/29 10:40:15;;;;;;;3.00;0.93;;;16.10;98.20;;;;;;4991401;28;20243;-82
2022/05/29 10:42:48;;;;;;;4.63;0.90;;;16.00;97.20;;;;;;5003864;28;20101;-82
2022/05/29 10:45:40;;;;;;;2.47;0.90;;;16.10;97.20;;;;;;5002435;28;20678;-80
2022/05/29 10:48:21;;;;;;;2.80;0.95;;;16.10;97.00;;;;;;5001349;28;20042;-85
2022/05/29 10:50:53;;;;;;;4.38;0.90;;;15.90;96.50;;;;;;4997277;28;20029;-85
2022/05/29 10:53:42;;;;;;;4.00;1.20;;;15.90;96.90;;;;;;5000773;28;20034;-83
2022/05/29 10:56:19;;;;;;;4.05;1.00;;;15.90;95.90;;;;;;4992881;28;20026;-81
2022/05/29 10:59:09;;;;;;;3.45;0.80;;;15.90;97.30;;;;;;4993089;28;20026;-91
2022/05/29 11:05:11;;;;;;;2.30;0.90;;;16.10;94.70;;;;;;5001844;28;20060;-82
2022/05/29 11:07:36;;;;;;;3.90;1.23;;;16.10;95.00;;;;;;4993775;28;20023;-82
2022/05/29 11:10:04;;;;;;;2.55;0.85;;;16.10;95.40;;;;;;4990844;28;20065;-82
2022/05/29 11:12:55;;;;;;;4.55;1.20;;;16.00;95.80;;;;;;4991854;28;20076;-81
2022/05/29 11:15:43;;;;;;;5.22;1.40;;;15.70;97.90;;;;;;4999283;28;20026;-82
2022/05/29 11:18:30;;;;;;;5.07;1.20;;;15.20;99.30;;;;;;5005986;28;20105;-82
2022/05/29 11:21:10;;;;;;;3.22;1.25;;;14.90;99.90;;;;;;4992724;28;20508;-82
2022/05/29 11:23:51;;;;;;;2.75;0.90;;;14.80;99.90;;;;;;4999813;28;20084;-82
2022/05/29 11:26:42;;;;;;;3.20;0.95;;;14.50;99.90;;;;;;5002834;28;20494;-82
2022/05/29 11:29:21;;;;;;;2.38;0.90;;;14.30;99.90;;;;;;5000794;28;20052;-82
2022/05/29 11:32:22;;;;;;;2.85;0.70;;;14.30;99.90;;;;;;5002132;28;20114;-82
2022/05/29 11:35:15;;;;;;;1.70;0.70;;;14.30;99.90;;;;;;4995154;28;20085;-82
2022/05/29 11:37:49;;;;;;;2.72;1.00;;;14.30;99.90;;;;;;5003879;28;20018;-80
2022/05/29 11:40:17;;;;;;;2.80;0.90;;;14.10;99.90;;;;;;4992388;28;20046;-80
2022/05/29 11:42:59;;;;;;;2.67;1.00;;;13.80;99.90;;;;;;5005183;28;20037;-81
2022/05/29 11:51:07;;;;;;;2.95;0.90;;;13.80;99.90;;;;;;5004433;28;20065;-81
2022/05/29 11:51:36;;;;;;;1.33;0.80;;;13.80;99.90;;;;;;5004082;28;20048;-81
2022/05/29 11:54:08;;;;;;;1.48;0.80;;;14.00;99.90;;;;;;5005063;28;20038;-81
2022/05/29 11:56:58;;;;;;;3.25;0.80;;;14.10;99.90;;;;;;5000089;28;20116;-85
2022/05/29 11:59:41;;;;;;;2.05;0.80;;;14.20;99.90;;;;;;4986729;28;20521;-85
2022/05/29 12:02:22;;;;;;;1.30;0.70;;;14.30;99.90;;;;;;5003046;28;20217;-85
2022/05/29 12:05:14;;;;;;;1.75;0.65;;;14.50;99.90;;;;;;4996057;28;20029;-84
2022/05/29 12:07:49;;;;;;;2.72;0.70;;;14.40;99.90;;;;;;4987983;28;20121;-92
2022/05/29 12:10:22;;;;;;;1.50;0.63;;;14.40;99.90;;;;;;4997354;28;20030;-94
2022/05/29 12:12:57;;;;;;;1.55;0.52;;;14.50;99.90;;;;;;5001402;28;20044;-93
2022/05/29 12:15:24;;;;;;;0.93;0.50;;;14.60;99.90;;;;;;4996259;28;20133;-91
2022/05/29 12:18:01;;;;;;;2.17;0.70;;;14.70;99.90;;;;;;5004946;28;20037;-86
2022/05/29 12:20:50;;;;;;;1.20;0.50;;;14.80;99.90;;;;;;4651348;28;10000725;-84
2022/05/29 12:23:26;;;;;;;1.00;0.52;;;14.80;99.90;;;;;;4998787;28;20038;-91
2022/05/29 12:26:14;;;;;;;0.68;0.52;;;14.80;99.90;;;;;;4999161;28;20045;-89
2022/05/29 12:28:55;;;;;;;1.48;0.75;;;14.90;99.90;;;;;;4998081;28;20029;-87
2022/05/29 12:31:46;;;;;;;2.72;0.88;;;15.00;99.90;;;;;;5001208;28;20034;-89
2022/05/29 12:34:21;;;;;;;1.80;1.00;;;15.10;99.90;;;;;;4996043;28;20058;-86
2022/05/29 12:37:00;;;;;;;2.25;0.90;;;15.20;99.90;;;;;;4994337;28;20042;-85
2022/05/29 12:40:08;;;;;;;1.83;1.00;;;15.20;99.90;;;;;;4997356;28;20061;-87
2022/05/29 12:42:39;;;;;;;2.83;1.00;;;15.20;99.90;;;;;;4996072;28;20169;-84
2022/05/29 12:45:11;;;;;;;3.53;1.90;;;15.30;99.90;;;;;;5004016;28;20033;-86
2022/05/29 12:47:49;;;;;;;2.60;1.20;;;15.50;99.90;;;;;;4997245;28;20023;-87
2022/05/29 12:50:35;;;;;;;2.85;0.88;;;15.70;99.90;;;;;;4995645;28;20060;-83
2022/05/29 12:53:31;;;;;;;2.40;1.05;;;15.70;99.90;;;;;;4999966;28;20041;-82
2022/05/29 12:56:31;;;;;;;2.53;0.80;;;15.90;99.90;;;;;;4998790;28;20053;-89
2022/05/29 12:59:15;;;;;;;1.60;0.85;;;15.90;99.90;;;;;;4997645;28;20489;-89
2022/05/29 13:01:48;;;;;;;1.35;0.80;;;15.90;99.90;;;;;;5008408;28;20433;-88
2022/05/29 13:04:33;;;;;;;1.20;0.70;;;15.90;99.90;;;;;;5005215;28;20034;-89
2022/05/29 13:07:22;;;;;;;3.70;1.10;;;16.00;99.90;;;;;;4999939;28;20030;-90
2022/05/29 13:10:06;;;;;;;2.53;1.10;;;16.10;99.90;;;;;;4994389;28;20077;-91
2022/05/29 13:12:50;;;;;;;2.92;1.00;;;16.30;99.90;;;;;;4991772;28;20034;-90
2022/05/29 13:15:27;;;;;;;1.98;0.80;;;16.40;99.90;;;;;;5007595;28;20447;-89
2022/05/29 13:21:18;;;;;;;6.03;0.90;;;16.10;99.90;;;;;;4995298;28;20124;-87
2022/05/29 13:23:45;;;;;;;2.17;0.68;;;15.70;99.90;;;;;;5005524;28;20458;-87
2022/05/29 13:26:13;;;;;;;2.83;0.70;;;15.40;99.90;;;;;;5001434;28;20022;-84
2022/05/29 13:28:41;;;;;;;1.08;0.73;;;15.10;99.90;;;;;;5005693;28;20026;-84
2022/05/29 13:31:15;;;;;;;2.58;0.85;;;14.80;99.90;;;;;;5002401;28;20048;-84
2022/05/29 13:33:44;;;;;;;3.13;1.10;;;14.60;99.90;;;;;;4989762;28;20109;-83
2022/05/29 13:36:31;;;;;;;0.90;0.75;;;14.40;99.90;;;;;;4995390;28;20022;-81
2022/05/29 13:38:56;;;;;;;0.82;0.80;;;14.20;99.90;;;;;;4996403;28;20363;-83
2022/05/29 13:41:31;;;;;;;2.33;0.80;;;14.20;99.90;;;;;;5004288;28;20036;-82
2022/05/29 13:44:22;;;;;;;0.77;0.70;;;14.20;99.90;;;;;;5008117;28;20045;-81
2022/05/29 13:46:47;;;;;;;1.05;0.90;;;14.20;99.90;;;;;;5007015;28;20038;-82
2022/05/29 13:49:20;;;;;;;1.52;1.00;;;14.20;99.90;;;;;;4988341;28;20045;-80
2022/05/29 13:51:46;;;;;;;2.97;1.20;;;14.30;99.90;;;;;;4998063;28;20432;-82
2022/05/29 13:54:25;;;;;;;2.72;1.08;;;14.20;99.90;;;;;;5003378;28;20025;-81
2022/05/29 13:57:05;;;;;;;2.03;1.52;;;14.30;99.90;;;;;;4999345;28;20550;-82
2022/05/29 14:05:46;;;;;;;4.55;2.13;;;14.70;99.90;;;;;;5003505;28;20033;-83
2022/05/29 14:08:17;;;;;;;3.45;1.70;;;14.90;99.90;;;;;;5001715;28;20025;-83